Bellemont, AZ

5:29 PM MST on March 26, 2015 (GMT -0700)
Bellemont, AZ | | Change Station
CLOSE
Current Station
Personal Weather Station
Location: Bellemont, AZ
Elevation: 7165 ft
Nearby Weather Stations

Elev 7165 ft 35.23 °N, 111.81 °W | Updated 8 seconds ago

Clear
Clear
62.8 °F
Feels Like 62.8 °F
N
4.3
Wind Variable Wind from ESE
Gusts 6.0 mph

Today
High -- | Low -- °F
--% Chance of Precip.
Yesterday
High -- | Low -- °F
Precip. -- in
6:22 AM 6:43 PM
Waxing Crescent, 47% visible
Pressure 30.12 in
Visibility 10.0 miles
Clouds Clear
Dew Point 16 °F
Humidity 16%
Rainfall 0.33 in
Snow Depth Not available.
UV 2 out of 12
Pollen 10.00 out of 12
Air Quality Not available.
Flu Activity Not available.
METAR KFLG 262357Z AUTO VRB05KT 10SM CLR 17/M12 A3031 RMK AO2 SLP197 T01721117 10178 20117 56007 TSNO

More Conditions Fewer Conditions

Pressure 30.12 in
Visibility 10.0 miles
Clouds Clear
Dew Point 16 °F
Humidity 16%
Rainfall 0.33 in
Snow Depth Not available.
UV 2 out of 12
Pollen 10.00 out of 12
Air Quality Not available.
Flu Activity Not available.
METAR KFLG 262357Z AUTO VRB05KT 10SM CLR 17/M12 A3031 RMK AO2 SLP197 T01721117 10178 20117 56007 TSNO

More Conditions Fewer Conditions

10-Day Weather Forecast

Almanac

Astronomy

Mar. 26, 2015 Rise Set
Actual Time
Civil Twilight
Nautical Twilight
Astronomical Twilight
Moon
Length of Visible Light
Length of Day
Tomorrow will be .
, % of the Moon is Illuminated

Today's Extremes

State Highs State Lows

Community

WunderPhotos

Upload Photos

1,808,651 photos uploaded!

WunderBlogs® & News

Nearby

Air Quality

  Air Quality AQ Index Pollutant
Not available.

Snow Depth

Station Depth Elevation

Earthquake Activity

City Distance Mag. Time & Date
Minimum magnitude displayed is 2.5.

Coastal Water Temperatures

Place Temperature

Stations

Nearby Weather Stations

Station Location Temp. Windchill Dew Point Humidity Wind Precip. Elev Updated Type